sensor_id;sensor_type;location;lat;lon;timestamp;P1;durP1;ratioP1;P2;durP2;ratioP2
67747;SDS011;54543;50.712;6.070;2023-11-21T00:00:14;8.23;;;3.33;;
67747;SDS011;54543;50.712;6.070;2023-11-21T00:02:40;6.68;;;3.58;;
67747;SDS011;54543;50.712;6.070;2023-11-21T00:05:10;8.25;;;3.60;;
67747;SDS011;54543;50.712;6.070;2023-11-21T00:07:37;7.22;;;2.67;;
67747;SDS011;54543;50.712;6.070;2023-11-21T00:10:03;7.45;;;3.85;;
67747;SDS011;54543;50.712;6.070;2023-11-21T00:12:30;8.35;;;3.72;;
67747;SDS011;54543;50.712;6.070;2023-11-21T00:14:56;6.75;;;3.72;;
67747;SDS011;54543;50.712;6.070;2023-11-21T00:17:23;9.10;;;4.00;;
67747;SDS011;54543;50.712;6.070;2023-11-21T00:19:48;6.18;;;3.60;;
67747;SDS011;54543;50.712;6.070;2023-11-21T00:22:13;6.50;;;2.80;;
67747;SDS011;54543;50.712;6.070;2023-11-21T00:24:39;5.53;;;3.00;;
67747;SDS011;54543;50.712;6.070;2023-11-21T00:27:05;6.20;;;2.88;;
67747;SDS011;54543;50.712;6.070;2023-11-21T00:29:31;7.32;;;3.50;;
67747;SDS011;54543;50.712;6.070;2023-11-21T00:31:57;7.95;;;3.63;;
67747;SDS011;54543;50.712;6.070;2023-11-21T00:34:22;5.63;;;3.30;;
67747;SDS011;54543;50.712;6.070;2023-11-21T00:36:48;5.57;;;3.40;;
67747;SDS011;54543;50.712;6.070;2023-11-21T00:39:13;5.88;;;3.30;;
67747;SDS011;54543;50.712;6.070;2023-11-21T00:41:39;9.70;;;3.90;;
67747;SDS011;54543;50.712;6.070;2023-11-21T00:44:04;7.72;;;3.45;;
67747;SDS011;54543;50.712;6.070;2023-11-21T00:46:31;7.25;;;3.92;;
67747;SDS011;54543;50.712;6.070;2023-11-21T00:48:57;7.32;;;4.28;;
67747;SDS011;54543;50.712;6.070;2023-11-21T00:51:22;5.43;;;2.95;;
67747;SDS011;54543;50.712;6.070;2023-11-21T00:53:48;10.07;;;4.55;;
67747;SDS011;54543;50.712;6.070;2023-11-21T00:56:14;7.40;;;3.75;;
67747;SDS011;54543;50.712;6.070;2023-11-21T00:58:40;10.35;;;4.93;;
67747;SDS011;54543;50.712;6.070;2023-11-21T01:01:09;10.70;;;5.35;;
67747;SDS011;54543;50.712;6.070;2023-11-21T01:03:34;9.70;;;4.45;;
67747;SDS011;54543;50.712;6.070;2023-11-21T01:06:00;11.88;;;5.80;;
67747;SDS011;54543;50.712;6.070;2023-11-21T01:08:26;11.57;;;5.57;;
67747;SDS011;54543;50.712;6.070;2023-11-21T01:10:51;11.15;;;5.18;;
67747;SDS011;54543;50.712;6.070;2023-11-21T01:13:17;10.68;;;4.80;;
67747;SDS011;54543;50.712;6.070;2023-11-21T01:15:43;10.27;;;4.53;;
67747;SDS011;54543;50.712;6.070;2023-11-21T01:18:09;11.80;;;5.45;;
67747;SDS011;54543;50.712;6.070;2023-11-21T01:20:34;11.55;;;5.18;;
67747;SDS011;54543;50.712;6.070;2023-11-21T01:23:00;11.52;;;5.38;;
67747;SDS011;54543;50.712;6.070;2023-11-21T01:25:26;10.50;;;4.88;;
67747;SDS011;54543;50.712;6.070;2023-11-21T01:27:51;8.45;;;4.40;;
67747;SDS011;54543;50.712;6.070;2023-11-21T01:30:17;10.18;;;4.72;;
67747;SDS011;54543;50.712;6.070;2023-11-21T01:32:43;11.32;;;4.68;;
67747;SDS011;54543;50.712;6.070;2023-11-21T01:35:09;10.00;;;5.00;;
67747;SDS011;54543;50.712;6.070;2023-11-21T01:37:35;9.50;;;3.88;;
67747;SDS011;54543;50.712;6.070;2023-11-21T01:40:01;10.88;;;4.45;;
67747;SDS011;54543;50.712;6.070;2023-11-21T01:42:30;8.13;;;4.47;;
67747;SDS011;54543;50.712;6.070;2023-11-21T01:44:55;9.73;;;4.55;;
67747;SDS011;54543;50.712;6.070;2023-11-21T01:47:21;9.05;;;4.10;;
67747;SDS011;54543;50.712;6.070;2023-11-21T01:49:46;10.35;;;4.13;;
67747;SDS011;54543;50.712;6.070;2023-11-21T01:52:13;8.73;;;4.10;;
67747;SDS011;54543;50.712;6.070;2023-11-21T01:54:40;9.98;;;4.18;;
67747;SDS011;54543;50.712;6.070;2023-11-21T01:57:06;7.63;;;4.13;;
67747;SDS011;54543;50.712;6.070;2023-11-21T01:59:35;8.70;;;4.60;;
67747;SDS011;54543;50.712;6.070;2023-11-21T02:02:03;8.85;;;4.13;;
67747;SDS011;54543;50.712;6.070;2023-11-21T02:04:35;9.32;;;4.60;;
67747;SDS011;54543;50.712;6.070;2023-11-21T02:07:01;10.00;;;4.50;;
67747;SDS011;54543;50.712;6.070;2023-11-21T02:09:30;10.82;;;4.57;;
67747;SDS011;54543;50.712;6.070;2023-11-21T02:11:58;11.27;;;5.05;;
67747;SDS011;54543;50.712;6.070;2023-11-21T02:14:24;10.10;;;4.65;;
67747;SDS011;54543;50.712;6.070;2023-11-21T02:16:53;10.43;;;4.68;;
67747;SDS011;54543;50.712;6.070;2023-11-21T02:19:21;10.82;;;4.82;;
67747;SDS011;54543;50.712;6.070;2023-11-21T02:21:54;11.45;;;5.18;;
67747;SDS011;54543;50.712;6.070;2023-11-21T02:24:24;9.85;;;4.22;;
67747;SDS011;54543;50.712;6.070;2023-11-21T02:26:50;12.15;;;5.32;;
67747;SDS011;54543;50.712;6.070;2023-11-21T02:29:19;11.68;;;5.20;;
67747;SDS011;54543;50.712;6.070;2023-11-21T02:31:47;11.40;;;5.32;;
67747;SDS011;54543;50.712;6.070;2023-11-21T02:34:16;11.15;;;5.35;;
67747;SDS011;54543;50.712;6.070;2023-11-21T02:36:43;9.35;;;4.55;;
67747;SDS011;54543;50.712;6.070;2023-11-21T02:39:10;11.00;;;4.97;;
67747;SDS011;54543;50.712;6.070;2023-11-21T02:41:39;12.90;;;5.22;;
67747;SDS011;54543;50.712;6.070;2023-11-21T02:44:07;11.80;;;5.13;;
67747;SDS011;54543;50.712;6.070;2023-11-21T02:46:34;11.82;;;5.00;;
67747;SDS011;54543;50.712;6.070;2023-11-21T02:49:00;10.88;;;4.80;;
67747;SDS011;54543;50.712;6.070;2023-11-21T02:51:27;12.93;;;5.78;;
67747;SDS011;54543;50.712;6.070;2023-11-21T02:53:52;10.43;;;5.10;;
67747;SDS011;54543;50.712;6.070;2023-11-21T02:56:18;11.15;;;5.63;;
67747;SDS011;54543;50.712;6.070;2023-11-21T02:58:43;12.27;;;5.20;;
67747;SDS011;54543;50.712;6.070;2023-11-21T03:01:09;10.52;;;4.95;;
67747;SDS011;54543;50.712;6.070;2023-11-21T03:03:36;15.02;;;5.80;;
67747;SDS011;54543;50.712;6.070;2023-11-21T03:06:07;14.25;;;5.45;;
67747;SDS011;54543;50.712;6.070;2023-11-21T03:08:33;14.30;;;5.85;;
67747;SDS011;54543;50.712;6.070;2023-11-21T03:10:59;10.85;;;5.20;;
67747;SDS011;54543;50.712;6.070;2023-11-21T03:13:24;12.95;;;5.68;;
67747;SDS011;54543;50.712;6.070;2023-11-21T03:15:50;12.95;;;5.53;;
67747;SDS011;54543;50.712;6.070;2023-11-21T03:18:15;12.50;;;5.57;;
67747;SDS011;54543;50.712;6.070;2023-11-21T03:20:41;14.95;;;6.28;;
67747;SDS011;54543;50.712;6.070;2023-11-21T03:23:11;14.70;;;5.93;;
67747;SDS011;54543;50.712;6.070;2023-11-21T03:25:37;12.38;;;5.80;;
67747;SDS011;54543;50.712;6.070;2023-11-21T03:28:03;12.95;;;6.22;;
67747;SDS011;54543;50.712;6.070;2023-11-21T03:30:29;15.88;;;6.13;;
67747;SDS011;54543;50.712;6.070;2023-11-21T03:32:54;13.95;;;6.30;;
67747;SDS011;54543;50.712;6.070;2023-11-21T03:35:20;15.07;;;6.20;;
67747;SDS011;54543;50.712;6.070;2023-11-21T03:37:46;11.98;;;5.35;;
67747;SDS011;54543;50.712;6.070;2023-11-21T03:40:12;14.95;;;5.50;;
67747;SDS011;54543;50.712;6.070;2023-11-21T03:42:38;12.77;;;5.38;;
67747;SDS011;54543;50.712;6.070;2023-11-21T03:45:05;13.23;;;5.55;;
67747;SDS011;54543;50.712;6.070;2023-11-21T03:47:31;13.38;;;6.25;;
67747;SDS011;54543;50.712;6.070;2023-11-21T03:49:56;11.00;;;5.20;;
67747;SDS011;54543;50.712;6.070;2023-11-21T03:52:22;12.30;;;5.60;;
67747;SDS011;54543;50.712;6.070;2023-11-21T03:54:49;12.73;;;5.80;;
67747;SDS011;54543;50.712;6.070;2023-11-21T03:57:14;10.93;;;5.40;;
67747;SDS011;54543;50.712;6.070;2023-11-21T03:59:40;14.70;;;5.10;;
67747;SDS011;54543;50.712;6.070;2023-11-21T04:02:06;12.98;;;5.70;;
67747;SDS011;54543;50.712;6.070;2023-11-21T04:04:33;12.55;;;5.53;;
67747;SDS011;54543;50.712;6.070;2023-11-21T04:06:59;13.30;;;5.78;;
67747;SDS011;54543;50.712;6.070;2023-11-21T04:09:24;12.07;;;5.30;;
67747;SDS011;54543;50.712;6.070;2023-11-21T04:11:53;10.48;;;5.22;;
67747;SDS011;54543;50.712;6.070;2023-11-21T04:14:18;11.63;;;5.40;;
67747;SDS011;54543;50.712;6.070;2023-11-21T04:16:44;10.38;;;5.38;;
67747;SDS011;54543;50.712;6.070;2023-11-21T04:19:10;11.02;;;4.72;;
67747;SDS011;54543;50.712;6.070;2023-11-21T04:21:36;10.15;;;5.10;;
67747;SDS011;54543;50.712;6.070;2023-11-21T04:24:02;12.55;;;5.20;;
67747;SDS011;54543;50.712;6.070;2023-11-21T04:26:27;12.70;;;5.45;;
67747;SDS011;54543;50.712;6.070;2023-11-21T04:28:53;11.25;;;5.03;;
67747;SDS011;54543;50.712;6.070;2023-11-21T04:31:18;11.23;;;4.80;;
67747;SDS011;54543;50.712;6.070;2023-11-21T04:33:44;11.23;;;4.53;;
67747;SDS011;54543;50.712;6.070;2023-11-21T04:36:10;14.27;;;5.55;;
67747;SDS011;54543;50.712;6.070;2023-11-21T04:38:35;9.50;;;5.15;;
67747;SDS011;54543;50.712;6.070;2023-11-21T04:41:01;12.32;;;5.07;;
67747;SDS011;54543;50.712;6.070;2023-11-21T04:43:27;10.75;;;5.03;;
67747;SDS011;54543;50.712;6.070;2023-11-21T04:45:53;10.93;;;4.97;;
67747;SDS011;54543;50.712;6.070;2023-11-21T04:48:19;12.88;;;5.57;;
67747;SDS011;54543;50.712;6.070;2023-11-21T04:50:45;13.38;;;5.28;;
67747;SDS011;54543;50.712;6.070;2023-11-21T04:53:10;11.05;;;4.55;;
67747;SDS011;54543;50.712;6.070;2023-11-21T04:55:38;12.68;;;5.30;;
67747;SDS011;54543;50.712;6.070;2023-11-21T04:58:04;11.90;;;5.20;;
67747;SDS011;54543;50.712;6.070;2023-11-21T05:00:29;11.60;;;5.72;;
67747;SDS011;54543;50.712;6.070;2023-11-21T05:02:55;10.35;;;4.53;;
67747;SDS011;54543;50.712;6.070;2023-11-21T05:05:20;14.07;;;6.05;;
67747;SDS011;54543;50.712;6.070;2023-11-21T05:07:45;10.90;;;4.97;;
67747;SDS011;54543;50.712;6.070;2023-11-21T05:10:11;12.77;;;5.43;;
67747;SDS011;54543;50.712;6.070;2023-11-21T05:12:37;11.23;;;5.10;;
67747;SDS011;54543;50.712;6.070;2023-11-21T05:15:06;14.65;;;5.93;;
67747;SDS011;54543;50.712;6.070;2023-11-21T05:17:39;13.63;;;5.45;;
67747;SDS011;54543;50.712;6.070;2023-11-21T05:20:07;14.50;;;5.53;;
67747;SDS011;54543;50.712;6.070;2023-11-21T05:22:35;11.77;;;5.25;;
67747;SDS011;54543;50.712;6.070;2023-11-21T05:25:02;14.55;;;5.30;;
67747;SDS011;54543;50.712;6.070;2023-11-21T05:27:29;13.38;;;5.70;;
67747;SDS011;54543;50.712;6.070;2023-11-21T05:29:56;15.00;;;6.03;;
67747;SDS011;54543;50.712;6.070;2023-11-21T05:32:22;13.15;;;5.30;;
67747;SDS011;54543;50.712;6.070;2023-11-21T05:34:49;12.52;;;5.18;;
67747;SDS011;54543;50.712;6.070;2023-11-21T05:37:14;11.73;;;5.35;;
67747;SDS011;54543;50.712;6.070;2023-11-21T05:39:40;13.27;;;5.65;;
67747;SDS011;54543;50.712;6.070;2023-11-21T05:42:05;14.20;;;5.97;;
67747;SDS011;54543;50.712;6.070;2023-11-21T05:44:31;16.77;;;6.10;;
67747;SDS011;54543;50.712;6.070;2023-11-21T05:46:57;27.00;;;12.85;;
67747;SDS011;54543;50.712;6.070;2023-11-21T05:49:24;17.85;;;7.75;;
67747;SDS011;54543;50.712;6.070;2023-11-21T05:51:53;12.88;;;6.40;;
67747;SDS011;54543;50.712;6.070;2023-11-21T05:54:19;16.77;;;6.55;;
67747;SDS011;54543;50.712;6.070;2023-11-21T05:56:45;19.05;;;6.93;;
67747;SDS011;54543;50.712;6.070;2023-11-21T05:59:12;14.73;;;6.47;;
67747;SDS011;54543;50.712;6.070;2023-11-21T06:01:37;16.08;;;6.53;;
67747;SDS011;54543;50.712;6.070;2023-11-21T06:04:04;13.95;;;6.13;;
67747;SDS011;54543;50.712;6.070;2023-11-21T06:06:30;13.23;;;5.68;;
67747;SDS011;54543;50.712;6.070;2023-11-21T06:08:56;15.80;;;6.15;;
67747;SDS011;54543;50.712;6.070;2023-11-21T06:11:22;14.77;;;6.47;;
67747;SDS011;54543;50.712;6.070;2023-11-21T06:13:47;17.42;;;6.10;;
67747;SDS011;54543;50.712;6.070;2023-11-21T06:16:13;15.02;;;5.80;;
67747;SDS011;54543;50.712;6.070;2023-11-21T06:18:41;14.27;;;5.65;;
67747;SDS011;54543;50.712;6.070;2023-11-21T06:21:09;13.60;;;5.53;;
67747;SDS011;54543;50.712;6.070;2023-11-21T06:23:34;16.10;;;6.93;;
67747;SDS011;54543;50.712;6.070;2023-11-21T06:26:00;16.65;;;6.45;;
67747;SDS011;54543;50.712;6.070;2023-11-21T06:28:26;16.52;;;7.32;;
67747;SDS011;54543;50.712;6.070;2023-11-21T06:30:51;16.23;;;7.10;;
67747;SDS011;54543;50.712;6.070;2023-11-21T06:33:18;14.05;;;7.05;;
67747;SDS011;54543;50.712;6.070;2023-11-21T06:35:44;16.10;;;6.50;;
67747;SDS011;54543;50.712;6.070;2023-11-21T06:38:10;22.30;;;7.72;;
67747;SDS011;54543;50.712;6.070;2023-11-21T06:40:35;18.90;;;6.88;;
67747;SDS011;54543;50.712;6.070;2023-11-21T06:43:01;17.98;;;7.18;;
67747;SDS011;54543;50.712;6.070;2023-11-21T06:45:27;20.85;;;7.70;;
67747;SDS011;54543;50.712;6.070;2023-11-21T06:47:52;20.42;;;7.13;;
67747;SDS011;54543;50.712;6.070;2023-11-21T06:50:18;18.50;;;6.97;;
67747;SDS011;54543;50.712;6.070;2023-11-21T06:52:44;17.05;;;6.10;;
67747;SDS011;54543;50.712;6.070;2023-11-21T06:55:09;19.75;;;6.35;;
67747;SDS011;54543;50.712;6.070;2023-11-21T06:57:36;19.90;;;7.40;;
67747;SDS011;54543;50.712;6.070;2023-11-21T07:00:02;18.50;;;6.40;;
67747;SDS011;54543;50.712;6.070;2023-11-21T07:02:28;16.75;;;6.95;;
67747;SDS011;54543;50.712;6.070;2023-11-21T07:04:54;15.88;;;6.43;;
67747;SDS011;54543;50.712;6.070;2023-11-21T07:07:19;15.30;;;5.75;;
67747;SDS011;54543;50.712;6.070;2023-11-21T07:09:45;18.50;;;7.22;;
67747;SDS011;54543;50.712;6.070;2023-11-21T07:12:10;16.55;;;6.43;;
67747;SDS011;54543;50.712;6.070;2023-11-21T07:14:36;14.95;;;5.82;;
67747;SDS011;54543;50.712;6.070;2023-11-21T07:17:04;14.80;;;6.03;;
67747;SDS011;54543;50.712;6.070;2023-11-21T07:19:29;17.63;;;6.85;;
67747;SDS011;54543;50.712;6.070;2023-11-21T07:21:55;17.27;;;6.60;;
67747;SDS011;54543;50.712;6.070;2023-11-21T07:24:21;13.75;;;5.65;;
67747;SDS011;54543;50.712;6.070;2023-11-21T07:26:48;17.48;;;5.90;;
67747;SDS011;54543;50.712;6.070;2023-11-21T07:29:14;19.50;;;7.10;;
67747;SDS011;54543;50.712;6.070;2023-11-21T07:31:40;17.20;;;6.97;;
67747;SDS011;54543;50.712;6.070;2023-11-21T07:34:06;20.40;;;6.85;;
67747;SDS011;54543;50.712;6.070;2023-11-21T07:36:33;18.55;;;6.85;;
67747;SDS011;54543;50.712;6.070;2023-11-21T07:38:58;15.43;;;6.72;;
67747;SDS011;54543;50.712;6.070;2023-11-21T07:41:24;14.98;;;6.40;;
67747;SDS011;54543;50.712;6.070;2023-11-21T07:43:50;18.70;;;6.22;;
67747;SDS011;54543;50.712;6.070;2023-11-21T07:46:15;17.35;;;6.63;;
67747;SDS011;54543;50.712;6.070;2023-11-21T07:48:41;22.77;;;7.55;;
67747;SDS011;54543;50.712;6.070;2023-11-21T07:51:07;18.27;;;6.43;;
67747;SDS011;54543;50.712;6.070;2023-11-21T07:53:34;22.05;;;8.48;;
67747;SDS011;54543;50.712;6.070;2023-11-21T07:56:03;19.85;;;7.10;;
67747;SDS011;54543;50.712;6.070;2023-11-21T07:58:30;18.50;;;6.60;;
67747;SDS011;54543;50.712;6.070;2023-11-21T08:00:56;21.80;;;8.52;;
67747;SDS011;54543;50.712;6.070;2023-11-21T08:03:21;20.55;;;7.80;;
67747;SDS011;54543;50.712;6.070;2023-11-21T08:05:47;20.92;;;7.28;;
67747;SDS011;54543;50.712;6.070;2023-11-21T08:08:12;18.50;;;7.10;;
67747;SDS011;54543;50.712;6.070;2023-11-21T08:10:38;22.35;;;7.45;;
67747;SDS011;54543;50.712;6.070;2023-11-21T08:13:07;16.58;;;6.10;;
67747;SDS011;54543;50.712;6.070;2023-11-21T08:15:34;16.23;;;6.88;;
67747;SDS011;54543;50.712;6.070;2023-11-21T08:18:02;16.77;;;7.18;;
67747;SDS011;54543;50.712;6.070;2023-11-21T08:20:27;18.05;;;6.72;;
67747;SDS011;54543;50.712;6.070;2023-11-21T08:22:53;16.52;;;6.93;;
67747;SDS011;54543;50.712;6.070;2023-11-21T08:25:20;16.65;;;6.65;;
67747;SDS011;54543;50.712;6.070;2023-11-21T08:27:46;16.35;;;6.40;;
67747;SDS011;54543;50.712;6.070;2023-11-21T08:30:12;21.20;;;7.07;;
67747;SDS011;54543;50.712;6.070;2023-11-21T08:32:39;18.35;;;6.80;;
67747;SDS011;54543;50.712;6.070;2023-11-21T08:35:07;19.00;;;7.60;;
67747;SDS011;54543;50.712;6.070;2023-11-21T08:37:32;18.73;;;7.65;;
67747;SDS011;54543;50.712;6.070;2023-11-21T08:40:02;23.13;;;9.25;;
67747;SDS011;54543;50.712;6.070;2023-11-21T08:42:41;20.25;;;7.00;;
67747;SDS011;54543;50.712;6.070;2023-11-21T08:45:08;17.83;;;7.20;;
67747;SDS011;54543;50.712;6.070;2023-11-21T08:47:34;17.05;;;6.20;;
67747;SDS011;54543;50.712;6.070;2023-11-21T08:50:01;25.80;;;9.27;;
67747;SDS011;54543;50.712;6.070;2023-11-21T08:52:27;18.08;;;7.80;;
67747;SDS011;54543;50.712;6.070;2023-11-21T08:54:53;24.20;;;8.35;;
67747;SDS011;54543;50.712;6.070;2023-11-21T08:57:24;20.83;;;7.03;;
67747;SDS011;54543;50.712;6.070;2023-11-21T08:59:50;19.88;;;6.97;;
67747;SDS011;54543;50.712;6.070;2023-11-21T09:02:20;17.05;;;6.75;;
67747;SDS011;54543;50.712;6.070;2023-11-21T09:04:48;15.80;;;6.18;;
67747;SDS011;54543;50.712;6.070;2023-11-21T09:07:14;17.23;;;7.00;;
67747;SDS011;54543;50.712;6.070;2023-11-21T09:09:39;21.95;;;7.68;;
67747;SDS011;54543;50.712;6.070;2023-11-21T09:12:05;16.27;;;6.53;;
67747;SDS011;54543;50.712;6.070;2023-11-21T09:14:31;20.27;;;7.70;;
67747;SDS011;54543;50.712;6.070;2023-11-21T09:16:59;17.58;;;7.95;;
67747;SDS011;54543;50.712;6.070;2023-11-21T09:19:25;18.33;;;6.65;;
67747;SDS011;54543;50.712;6.070;2023-11-21T09:21:51;20.35;;;8.00;;
67747;SDS011;54543;50.712;6.070;2023-11-21T09:24:17;17.17;;;5.45;;
67747;SDS011;54543;50.712;6.070;2023-11-21T09:26:43;20.67;;;7.10;;
67747;SDS011;54543;50.712;6.070;2023-11-21T09:29:08;19.58;;;7.32;;
67747;SDS011;54543;50.712;6.070;2023-11-21T09:31:34;27.88;;;9.38;;
67747;SDS011;54543;50.712;6.070;2023-11-21T09:34:00;21.60;;;7.50;;
67747;SDS011;54543;50.712;6.070;2023-11-21T09:36:27;21.52;;;8.38;;
67747;SDS011;54543;50.712;6.070;2023-11-21T09:38:55;24.48;;;7.88;;
67747;SDS011;54543;50.712;6.070;2023-11-21T09:41:21;18.52;;;6.93;;
67747;SDS011;54543;50.712;6.070;2023-11-21T09:44:00;25.38;;;8.13;;
67747;SDS011;54543;50.712;6.070;2023-11-21T09:46:32;21.75;;;7.47;;
67747;SDS011;54543;50.712;6.070;2023-11-21T09:48:58;26.38;;;8.70;;
67747;SDS011;54543;50.712;6.070;2023-11-21T09:51:27;25.63;;;8.55;;
67747;SDS011;54543;50.712;6.070;2023-11-21T09:53:55;27.75;;;8.30;;
67747;SDS011;54543;50.712;6.070;2023-11-21T09:56:24;22.15;;;8.07;;
67747;SDS011;54543;50.712;6.070;2023-11-21T09:58:52;24.83;;;7.63;;
67747;SDS011;54543;50.712;6.070;2023-11-21T10:01:19;21.50;;;6.97;;
67747;SDS011;54543;50.712;6.070;2023-11-21T10:03:45;17.55;;;6.00;;
67747;SDS011;54543;50.712;6.070;2023-11-21T10:06:12;24.10;;;6.55;;
67747;SDS011;54543;50.712;6.070;2023-11-21T10:08:39;21.73;;;6.88;;
67747;SDS011;54543;50.712;6.070;2023-11-21T10:11:06;24.25;;;7.40;;
67747;SDS011;54543;50.712;6.070;2023-11-21T10:13:36;21.45;;;7.15;;
67747;SDS011;54543;50.712;6.070;2023-11-21T10:16:02;19.45;;;6.40;;
67747;SDS011;54543;50.712;6.070;2023-11-21T10:18:30;19.77;;;6.20;;
67747;SDS011;54543;50.712;6.070;2023-11-21T10:20:59;24.55;;;6.40;;
67747;SDS011;54543;50.712;6.070;2023-11-21T10:23:26;21.52;;;7.72;;
67747;SDS011;54543;50.712;6.070;2023-11-21T10:25:52;25.42;;;8.43;;
67747;SDS011;54543;50.712;6.070;2023-11-21T10:28:20;24.52;;;8.57;;
67747;SDS011;54543;50.712;6.070;2023-11-21T10:30:46;19.58;;;7.55;;
67747;SDS011;54543;50.712;6.070;2023-11-21T10:33:11;26.05;;;8.95;;
67747;SDS011;54543;50.712;6.070;2023-11-21T10:35:47;15.80;;;5.95;;
67747;SDS011;54543;50.712;6.070;2023-11-21T10:38:16;19.95;;;6.50;;
67747;SDS011;54543;50.712;6.070;2023-11-21T10:40:42;22.17;;;7.50;;
67747;SDS011;54543;50.712;6.070;2023-11-21T10:43:10;20.42;;;5.95;;
67747;SDS011;54543;50.712;6.070;2023-11-21T10:45:36;22.08;;;7.05;;
67747;SDS011;54543;50.712;6.070;2023-11-21T10:48:05;14.57;;;6.15;;
67747;SDS011;54543;50.712;6.070;2023-11-21T10:50:36;16.52;;;5.45;;
67747;SDS011;54543;50.712;6.070;2023-11-21T10:53:04;21.65;;;7.70;;
67747;SDS011;54543;50.712;6.070;2023-11-21T10:55:31;15.80;;;6.72;;
67747;SDS011;54543;50.712;6.070;2023-11-21T10:58:04;23.25;;;8.05;;
67747;SDS011;54543;50.712;6.070;2023-11-21T11:00:31;16.95;;;6.60;;
67747;SDS011;54543;50.712;6.070;2023-11-21T11:02:58;23.92;;;8.68;;
67747;SDS011;54543;50.712;6.070;2023-11-21T11:05:25;17.65;;;6.55;;
67747;SDS011;54543;50.712;6.070;2023-11-21T11:07:52;13.65;;;5.35;;
67747;SDS011;54543;50.712;6.070;2023-11-21T11:10:26;16.60;;;5.53;;
67747;SDS011;54543;50.712;6.070;2023-11-21T11:12:54;13.23;;;5.68;;
67747;SDS011;54543;50.712;6.070;2023-11-21T11:15:20;18.05;;;5.93;;
67747;SDS011;54543;50.712;6.070;2023-11-21T11:17:46;16.67;;;6.65;;
67747;SDS011;54543;50.712;6.070;2023-11-21T11:20:14;17.23;;;7.07;;
67747;SDS011;54543;50.712;6.070;2023-11-21T11:22:57;20.70;;;7.00;;
67747;SDS011;54543;50.712;6.070;2023-11-21T11:28:29;14.02;;;6.32;;
67747;SDS011;54543;50.712;6.070;2023-11-21T11:31:31;16.67;;;6.72;;
67747;SDS011;54543;50.712;6.070;2023-11-21T11:34:35;17.33;;;6.97;;
67747;SDS011;54543;50.712;6.070;2023-11-21T11:37:06;14.25;;;6.47;;
67747;SDS011;54543;50.712;6.070;2023-11-21T11:39:37;14.82;;;6.05;;
67747;SDS011;54543;50.712;6.070;2023-11-21T11:42:06;10.77;;;4.88;;
67747;SDS011;54543;50.712;6.070;2023-11-21T11:47:14;12.02;;;5.40;;
67747;SDS011;54543;50.712;6.070;2023-11-21T11:52:41;15.32;;;6.53;;
67747;SDS011;54543;50.712;6.070;2023-11-21T11:55:14;14.80;;;6.05;;
67747;SDS011;54543;50.712;6.070;2023-11-21T11:57:45;13.48;;;5.60;;
67747;SDS011;54543;50.712;6.070;2023-11-21T12:02:54;14.10;;;5.43;;
67747;SDS011;54543;50.712;6.070;2023-11-21T12:05:22;11.02;;;3.90;;
67747;SDS011;54543;50.712;6.070;2023-11-21T12:07:52;9.55;;;3.80;;
67747;SDS011;54543;50.712;6.070;2023-11-21T12:10:26;9.98;;;3.80;;
67747;SDS011;54543;50.712;6.070;2023-11-21T12:12:54;7.32;;;3.60;;
67747;SDS011;54543;50.712;6.070;2023-11-21T12:15:24;8.30;;;3.15;;
67747;SDS011;54543;50.712;6.070;2023-11-21T12:17:51;7.00;;;3.10;;
67747;SDS011;54543;50.712;6.070;2023-11-21T12:20:20;7.65;;;2.90;;
67747;SDS011;54543;50.712;6.070;2023-11-21T12:22:48;8.93;;;2.92;;
67747;SDS011;54543;50.712;6.070;2023-11-21T12:25:18;7.95;;;3.40;;
67747;SDS011;54543;50.712;6.070;2023-11-21T12:27:45;8.18;;;3.38;;
67747;SDS011;54543;50.712;6.070;2023-11-21T12:30:12;9.40;;;3.58;;
67747;SDS011;54543;50.712;6.070;2023-11-21T12:32:42;9.82;;;3.83;;
67747;SDS011;54543;50.712;6.070;2023-11-21T12:35:09;8.60;;;3.50;;
67747;SDS011;54543;50.712;6.070;2023-11-21T12:37:36;7.15;;;2.88;;
67747;SDS011;54543;50.712;6.070;2023-11-21T12:40:04;5.90;;;2.38;;
67747;SDS011;54543;50.712;6.070;2023-11-21T12:42:32;8.48;;;3.03;;
67747;SDS011;54543;50.712;6.070;2023-11-21T12:47:46;6.35;;;2.58;;
67747;SDS011;54543;50.712;6.070;2023-11-21T12:50:19;7.35;;;3.00;;
67747;SDS011;54543;50.712;6.070;2023-11-21T12:52:49;6.95;;;2.83;;
67747;SDS011;54543;50.712;6.070;2023-11-21T12:55:16;5.95;;;2.80;;
67747;SDS011;54543;50.712;6.070;2023-11-21T12:57:47;9.40;;;2.83;;
67747;SDS011;54543;50.712;6.070;2023-11-21T13:00:17;10.05;;;3.17;;
67747;SDS011;54543;50.712;6.070;2023-11-21T13:02:53;10.15;;;3.35;;
67747;SDS011;54543;50.712;6.070;2023-11-21T13:07:59;10.32;;;3.40;;
67747;SDS011;54543;50.712;6.070;2023-11-21T13:10:28;10.32;;;3.95;;
67747;SDS011;54543;50.712;6.070;2023-11-21T13:12:59;9.98;;;3.88;;
67747;SDS011;54543;50.712;6.070;2023-11-21T13:15:26;10.63;;;4.28;;
67747;SDS011;54543;50.712;6.070;2023-11-21T13:17:52;7.28;;;3.67;;
67747;SDS011;54543;50.712;6.070;2023-11-21T13:20:19;7.75;;;3.63;;
67747;SDS011;54543;50.712;6.070;2023-11-21T13:22:55;8.60;;;3.83;;
67747;SDS011;54543;50.712;6.070;2023-11-21T13:25:26;12.30;;;4.13;;
67747;SDS011;54543;50.712;6.070;2023-11-21T13:27:56;11.10;;;3.90;;
67747;SDS011;54543;50.712;6.070;2023-11-21T13:30:25;11.65;;;4.30;;
67747;SDS011;54543;50.712;6.070;2023-11-21T13:32:56;11.52;;;4.00;;
67747;SDS011;54543;50.712;6.070;2023-11-21T13:35:25;12.93;;;4.38;;
67747;SDS011;54543;50.712;6.070;2023-11-21T13:40:28;8.85;;;3.63;;
67747;SDS011;54543;50.712;6.070;2023-11-21T13:42:53;9.45;;;3.58;;
67747;SDS011;54543;50.712;6.070;2023-11-21T13:45:20;10.40;;;4.35;;
67747;SDS011;54543;50.712;6.070;2023-11-21T13:47:48;10.52;;;4.00;;
67747;SDS011;54543;50.712;6.070;2023-11-21T13:50:20;8.88;;;3.75;;
67747;SDS011;54543;50.712;6.070;2023-11-21T13:52:49;8.73;;;3.55;;
67747;SDS011;54543;50.712;6.070;2023-11-21T13:55:17;9.50;;;4.35;;
67747;SDS011;54543;50.712;6.070;2023-11-21T13:57:43;8.95;;;3.55;;
67747;SDS011;54543;50.712;6.070;2023-11-21T14:00:12;10.25;;;3.95;;
67747;SDS011;54543;50.712;6.070;2023-11-21T14:02:58;11.68;;;4.38;;
67747;SDS011;54543;50.712;6.070;2023-11-21T14:05:26;10.18;;;3.55;;
67747;SDS011;54543;50.712;6.070;2023-11-21T14:07:54;9.18;;;3.35;;
67747;SDS011;54543;50.712;6.070;2023-11-21T14:10:31;11.07;;;3.40;;
67747;SDS011;54543;50.712;6.070;2023-11-21T14:13:08;10.25;;;4.07;;
67747;SDS011;54543;50.712;6.070;2023-11-21T14:15:38;8.77;;;3.53;;
67747;SDS011;54543;50.712;6.070;2023-11-21T14:18:08;11.05;;;5.18;;
67747;SDS011;54543;50.712;6.070;2023-11-21T14:20:36;11.35;;;4.10;;
67747;SDS011;54543;50.712;6.070;2023-11-21T14:23:04;10.68;;;4.05;;
67747;SDS011;54543;50.712;6.070;2023-11-21T14:25:34;10.32;;;4.72;;
67747;SDS011;54543;50.712;6.070;2023-11-21T14:28:02;10.73;;;4.60;;
67747;SDS011;54543;50.712;6.070;2023-11-21T14:30:29;11.45;;;4.22;;
67747;SDS011;54543;50.712;6.070;2023-11-21T14:32:58;11.52;;;4.47;;
67747;SDS011;54543;50.712;6.070;2023-11-21T14:35:23;9.63;;;3.83;;
67747;SDS011;54543;50.712;6.070;2023-11-21T14:37:49;12.93;;;4.57;;
67747;SDS011;54543;50.712;6.070;2023-11-21T14:40:15;7.85;;;4.30;;
67747;SDS011;54543;50.712;6.070;2023-11-21T14:42:41;9.10;;;4.07;;
67747;SDS011;54543;50.712;6.070;2023-11-21T14:45:07;7.07;;;3.40;;
67747;SDS011;54543;50.712;6.070;2023-11-21T14:47:36;6.95;;;2.88;;
67747;SDS011;54543;50.712;6.070;2023-11-21T14:50:08;5.55;;;2.45;;
67747;SDS011;54543;50.712;6.070;2023-11-21T14:53:06;5.75;;;2.40;;
67747;SDS011;54543;50.712;6.070;2023-11-21T14:55:33;6.35;;;2.53;;
67747;SDS011;54543;50.712;6.070;2023-11-21T14:58:18;5.60;;;2.58;;